Time;durP1;ratioP1;P1;durP2;ratioP2;P2;SDS_P1;SDS_P2;PMS_P1;PMS_P2;Temp;Humidity;BMP_temperature;BMP_pressure;BME280_temperature;BME280_humidity;BME280_pressure;Samples;Min_cycle;Max_cycle;Signal;HPM_P1;HPM_P2
2024/01/06 00:01:37;;;;;;;21.00;3.57;;;7.60;99.90;;;;;;5034295;28;20638;-80
2024/01/06 00:04:03;;;;;;;20.47;4.03;;;7.60;99.90;;;;;;5034629;28;20547;-81
2024/01/06 00:06:29;;;;;;;20.90;4.10;;;7.60;99.90;;;;;;5016256;28;20247;-81
2024/01/06 00:08:54;;;;;;;20.67;4.00;;;7.60;99.90;;;;;;5034568;28;20607;-82
2024/01/06 00:11:21;;;;;;;20.30;4.50;;;7.60;99.90;;;;;;5034051;28;20663;-81
2024/01/06 00:13:47;;;;;;;24.10;5.20;;;7.60;99.90;;;;;;5034206;28;20174;-82
2024/01/06 00:16:12;;;;;;;20.87;4.13;;;7.60;99.90;;;;;;5033926;28;20193;-81
2024/01/06 00:18:39;;;;;;;19.50;3.87;;;7.60;99.90;;;;;;5034031;28;20781;-80
2024/01/06 00:21:05;;;;;;;19.38;3.63;;;7.70;99.90;;;;;;5016346;28;20534;-82
2024/01/06 00:23:30;;;;;;;23.00;4.43;;;7.70;99.90;;;;;;5016119;28;20198;-82
2024/01/06 00:25:56;;;;;;;20.70;4.13;;;7.70;99.90;;;;;;5033967;28;20196;-81
2024/01/06 00:28:22;;;;;;;20.93;4.40;;;7.70;99.90;;;;;;5016284;28;20264;-82
2024/01/06 00:30:47;;;;;;;20.13;4.03;;;7.70;99.90;;;;;;5016501;28;20450;-81
2024/01/06 00:33:13;;;;;;;20.57;3.90;;;7.70;99.90;;;;;;5037452;28;20174;-80
2024/01/06 00:35:39;;;;;;;21.67;3.90;;;7.70;99.90;;;;;;5037653;28;20198;-80
2024/01/06 00:38:05;;;;;;;20.90;4.53;;;7.60;99.90;;;;;;5019958;28;20657;-80
2024/01/06 00:40:32;;;;;;;22.27;5.03;;;7.60;99.90;;;;;;5038065;28;20249;-81
2024/01/06 00:42:58;;;;;;;21.42;5.35;;;7.60;99.90;;;;;;5037460;28;20166;-81
2024/01/06 00:45:24;;;;;;;24.03;4.87;;;7.60;99.90;;;;;;5037544;28;20173;-82
2024/01/06 00:47:49;;;;;;;22.10;4.57;;;7.60;99.90;;;;;;5037534;28;20404;-81
2024/01/06 00:50:16;;;;;;;21.37;5.00;;;7.60;99.90;;;;;;5019955;28;20173;-81
2024/01/06 00:52:42;;;;;;;22.92;5.15;;;7.60;99.90;;;;;;5037522;28;20182;-81
2024/01/06 00:55:08;;;;;;;22.60;5.50;;;7.50;99.90;;;;;;5037851;28;20248;-81
2024/01/06 00:57:34;;;;;;;21.25;5.57;;;7.60;99.90;;;;;;5037498;28;20190;-81
2024/01/06 00:59:59;;;;;;;22.10;5.37;;;7.60;99.90;;;;;;5037296;28;20172;-80
2024/01/06 01:02:25;;;;;;;21.40;4.73;;;7.60;99.90;;;;;;5037483;28;20178;-80
2024/01/06 01:04:52;;;;;;;21.07;4.80;;;7.60;99.90;;;;;;5037160;28;20255;-81
2024/01/06 01:07:18;;;;;;;21.60;4.80;;;7.60;99.90;;;;;;5037241;28;20276;-82
2024/01/06 01:09:43;;;;;;;23.90;5.00;;;7.60;99.90;;;;;;5037369;28;20200;-80
2024/01/06 01:12:09;;;;;;;23.83;4.47;;;7.60;99.90;;;;;;5019141;28;20530;-81
2024/01/06 01:14:35;;;;;;;21.10;4.33;;;7.60;99.90;;;;;;5036849;28;20204;-81
2024/01/06 01:17:00;;;;;;;20.63;4.00;;;7.60;99.90;;;;;;5036532;28;20190;-80
2024/01/06 01:19:26;;;;;;;22.70;5.33;;;7.60;99.90;;;;;;5037055;28;20170;-79
2024/01/06 01:21:55;;;;;;;20.87;5.03;;;7.60;99.90;;;;;;5019107;28;20691;-81
2024/01/06 01:24:21;;;;;;;21.85;3.92;;;7.60;99.90;;;;;;5037346;28;20634;-79
2024/01/06 01:26:47;;;;;;;21.88;4.50;;;7.60;99.90;;;;;;5036577;28;20249;-81
2024/01/06 01:29:13;;;;;;;20.97;4.07;;;7.60;99.90;;;;;;5036584;28;20166;-80
2024/01/06 01:31:38;;;;;;;22.00;5.03;;;7.50;99.90;;;;;;5019151;28;20166;-80
2024/01/06 01:34:04;;;;;;;23.60;4.57;;;7.60;99.90;;;;;;5036845;28;20248;-80
2024/01/06 01:36:29;;;;;;;22.93;4.57;;;7.60;99.90;;;;;;5036336;28;20332;-80
2024/01/06 01:38:55;;;;;;;21.70;3.60;;;7.60;99.90;;;;;;5018617;28;20520;-80
2024/01/06 01:41:21;;;;;;;21.70;4.13;;;7.60;99.90;;;;;;5018633;28;20276;-80
2024/01/06 01:43:46;;;;;;;21.00;4.30;;;7.60;99.90;;;;;;5035937;28;20233;-80
2024/01/06 01:46:12;;;;;;;20.10;3.90;;;7.60;99.90;;;;;;5036448;28;20209;-80
2024/01/06 01:48:38;;;;;;;22.00;4.23;;;7.60;99.90;;;;;;5018697;28;20174;-79
2024/01/06 01:51:04;;;;;;;21.67;4.65;;;7.60;99.90;;;;;;5036331;28;20897;-80
2024/01/06 01:53:31;;;;;;;20.10;4.03;;;7.60;99.90;;;;;;5036166;28;20165;-80
2024/01/06 01:55:57;;;;;;;19.85;3.45;;;7.60;99.90;;;;;;5036817;28;20236;-81
2024/01/06 01:58:23;;;;;;;21.10;4.05;;;7.60;99.90;;;;;;5036137;28;20162;-80
2024/01/06 02:00:49;;;;;;;21.47;4.20;;;7.60;99.90;;;;;;5035934;28;20169;-80
2024/01/06 02:03:16;;;;;;;25.33;4.30;;;7.60;99.90;;;;;;5035853;28;20961;-81
2024/01/06 02:05:42;;;;;;;24.35;4.88;;;7.60;99.90;;;;;;5035540;28;20424;-80
2024/01/06 02:08:08;;;;;;;24.60;4.87;;;7.60;99.90;;;;;;5035740;28;20162;-80
2024/01/06 02:10:34;;;;;;;25.52;4.82;;;7.50;99.90;;;;;;5035944;28;20162;-80
2024/01/06 02:13:10;;;;;;;23.83;5.73;;;7.50;99.90;;;;;;5035912;28;20163;-80
2024/01/06 02:15:37;;;;;;;22.80;4.50;;;7.50;99.90;;;;;;5035977;28;20381;-80
2024/01/06 02:18:02;;;;;;;22.00;4.65;;;7.50;99.90;;;;;;5035810;28;20256;-81
2024/01/06 02:20:30;;;;;;;23.70;5.30;;;7.60;99.90;;;;;;5035551;28;20201;-81
2024/01/06 02:22:58;;;;;;;24.38;6.25;;;7.60;99.90;;;;;;5035382;28;20758;-80
2024/01/06 02:25:24;;;;;;;24.17;5.45;;;7.60;99.90;;;;;;5018094;28;20162;-79
2024/01/06 02:27:50;;;;;;;24.23;5.60;;;7.50;99.90;;;;;;5035715;28;20245;-79
2024/01/06 02:30:15;;;;;;;23.77;5.83;;;7.50;99.90;;;;;;5035666;28;20464;-80
2024/01/06 02:32:41;;;;;;;24.73;6.40;;;7.50;99.90;;;;;;5035795;28;20168;-79
2024/01/06 02:35:07;;;;;;;23.67;5.77;;;7.50;99.90;;;;;;5035421;28;20166;-80
2024/01/06 02:37:33;;;;;;;22.90;5.53;;;7.50;99.90;;;;;;5035385;28;20270;-80
2024/01/06 02:39:58;;;;;;;24.50;6.80;;;7.50;99.90;;;;;;5036016;28;20596;-80
2024/01/06 02:42:25;;;;;;;24.20;6.10;;;7.50;99.90;;;;;;5035304;28;20531;-79
2024/01/06 02:44:51;;;;;;;24.65;5.88;;;7.50;99.90;;;;;;5035105;28;20182;-81
2024/01/06 02:47:16;;;;;;;24.60;5.97;;;7.50;99.90;;;;;;5035079;28;20193;-80
2024/01/06 02:49:42;;;;;;;25.63;7.07;;;7.40;99.90;;;;;;5035259;28;20762;-80
2024/01/06 02:52:07;;;;;;;27.00;6.30;;;7.50;99.90;;;;;;5035205;28;20218;-80
2024/01/06 02:54:33;;;;;;;26.17;6.63;;;7.40;99.90;;;;;;5034422;28;20169;-80
2024/01/06 02:56:59;;;;;;;25.50;6.83;;;7.40;99.90;;;;;;5035172;28;20189;-80
2024/01/06 02:59:24;;;;;;;28.97;7.13;;;7.40;99.90;;;;;;5035317;28;20249;-80
2024/01/06 03:01:50;;;;;;;27.83;7.20;;;7.40;99.90;;;;;;5035206;28;20190;-80
2024/01/06 03:04:16;;;;;;;26.90;8.20;;;7.40;99.90;;;;;;5034855;28;20208;-79
2024/01/06 03:06:41;;;;;;;25.87;6.97;;;7.50;99.90;;;;;;5035006;28;20182;-79
2024/01/06 03:09:07;;;;;;;29.00;8.57;;;7.50;99.90;;;;;;5035657;28;20627;-80
2024/01/06 03:11:33;;;;;;;26.33;7.20;;;7.50;99.90;;;;;;5035233;28;20504;-81
2024/01/06 03:13:58;;;;;;;26.57;7.80;;;7.50;99.90;;;;;;5034775;28;20165;-79
2024/01/06 03:16:24;;;;;;;25.57;7.47;;;7.50;99.90;;;;;;5035073;28;20231;-80
2024/01/06 03:18:49;;;;;;;25.30;7.77;;;7.50;99.90;;;;;;5034724;28;20512;-80
2024/01/06 03:21:20;;;;;;;26.40;8.13;;;7.50;99.90;;;;;;5017180;28;20656;-79
2024/01/06 03:23:46;;;;;;;26.20;8.45;;;7.50;99.90;;;;;;5016719;28;20570;-79
2024/01/06 03:26:16;;;;;;;29.23;8.30;;;7.60;99.90;;;;;;5016623;28;20181;-80
2024/01/06 03:28:42;;;;;;;29.98;9.75;;;7.60;99.90;;;;;;5035192;28;20700;-80
2024/01/06 03:31:07;;;;;;;28.17;8.50;;;7.50;99.90;;;;;;5034252;28;20249;-81
2024/01/06 03:33:33;;;;;;;27.30;8.47;;;7.50;99.90;;;;;;5034523;28;20169;-79
2024/01/06 03:36:03;;;;;;;27.37;8.63;;;7.60;99.90;;;;;;5034564;28;20236;-80
2024/01/06 03:38:29;;;;;;;28.60;9.18;;;7.60;99.90;;;;;;5017089;28;20173;-81
2024/01/06 03:40:54;;;;;;;31.20;9.73;;;7.60;99.90;;;;;;5034415;28;20175;-79
2024/01/06 03:43:20;;;;;;;29.83;9.10;;;7.60;99.90;;;;;;5034414;28;20193;-80
2024/01/06 03:45:46;;;;;;;33.17;9.27;;;7.60;99.90;;;;;;5034473;28;20717;-80
2024/01/06 03:48:11;;;;;;;31.87;10.33;;;7.60;99.90;;;;;;5016659;28;20216;-81
2024/01/06 03:50:37;;;;;;;29.20;8.40;;;7.60;99.90;;;;;;5034180;28;20657;-80
2024/01/06 03:53:02;;;;;;;31.60;11.00;;;7.60;99.90;;;;;;5034606;28;20162;-80
2024/01/06 03:55:28;;;;;;;28.17;9.33;;;7.60;99.90;;;;;;5034367;28;20189;-81
2024/01/06 03:57:54;;;;;;;28.63;10.30;;;7.60;99.90;;;;;;5034378;28;20166;-80
2024/01/06 04:00:19;;;;;;;30.87;9.70;;;7.50;99.90;;;;;;5034301;28;20158;-79
2024/01/06 04:02:45;;;;;;;34.77;11.33;;;7.50;99.90;;;;;;5034677;28;20170;-80
2024/01/06 04:05:11;;;;;;;27.90;9.10;;;7.50;99.90;;;;;;5034557;28;20288;-80
2024/01/06 04:07:36;;;;;;;33.13;12.27;;;7.60;99.90;;;;;;5040791;28;20181;-79
2024/01/06 04:10:02;;;;;;;35.30;11.60;;;7.60;99.90;;;;;;5040585;28;20193;-81
2024/01/06 04:12:28;;;;;;;33.13;11.13;;;7.50;99.90;;;;;;5040867;28;20225;-80
2024/01/06 04:14:53;;;;;;;30.57;10.07;;;7.50;99.90;;;;;;5041019;28;20408;-79
2024/01/06 04:17:19;;;;;;;32.03;11.17;;;7.60;99.90;;;;;;5040802;28;20181;-80
2024/01/06 04:19:45;;;;;;;31.77;10.97;;;7.60;99.90;;;;;;5041164;28;20169;-79
2024/01/06 04:22:10;;;;;;;36.60;13.03;;;7.60;99.90;;;;;;5040845;28;20166;-81
2024/01/06 04:24:37;;;;;;;35.30;12.50;;;7.60;99.90;;;;;;5041297;28;20220;-79
2024/01/06 04:27:04;;;;;;;32.97;11.73;;;7.60;99.90;;;;;;5040642;28;20205;-80
2024/01/06 04:29:30;;;;;;;33.90;10.77;;;7.60;99.90;;;;;;5040635;28;20191;-81
2024/01/06 04:31:55;;;;;;;33.90;12.27;;;7.60;99.90;;;;;;5040649;28;20173;-79
2024/01/06 04:34:21;;;;;;;31.07;11.63;;;7.70;99.90;;;;;;5040524;28;20454;-80
2024/01/06 04:36:48;;;;;;;34.30;12.10;;;7.60;99.90;;;;;;5040441;28;20177;-80
2024/01/06 04:39:14;;;;;;;33.38;11.57;;;7.60;99.90;;;;;;5040918;28;20162;-80
2024/01/06 04:41:40;;;;;;;35.47;13.07;;;7.60;99.90;;;;;;5040624;28;20158;-80
2024/01/06 04:44:06;;;;;;;33.80;11.77;;;7.50;99.90;;;;;;5040914;28;20185;-80
2024/01/06 04:46:32;;;;;;;32.83;12.73;;;7.50;99.90;;;;;;5040341;28;20427;-80
2024/01/06 04:48:57;;;;;;;33.27;12.27;;;7.50;99.90;;;;;;5023078;28;20197;-80
2024/01/06 04:51:23;;;;;;;37.37;13.43;;;7.60;99.90;;;;;;5040439;28;20189;-81
2024/01/06 04:53:51;;;;;;;36.33;14.30;;;7.60;99.90;;;;;;5040532;28;20168;-80
2024/01/06 04:56:17;;;;;;;37.10;14.43;;;7.60;99.90;;;;;;5040186;28;20213;-79
2024/01/06 04:58:43;;;;;;;36.47;14.63;;;7.60;99.90;;;;;;5040237;28;20166;-80
2024/01/06 05:01:09;;;;;;;40.27;14.30;;;7.70;99.90;;;;;;5040365;28;20205;-81
2024/01/06 05:03:34;;;;;;;37.57;14.70;;;7.70;99.90;;;;;;5040499;28;20190;-80
2024/01/06 05:06:00;;;;;;;38.93;14.83;;;7.70;99.90;;;;;;5040241;28;20485;-81
2024/01/06 05:08:26;;;;;;;38.77;14.27;;;7.70;99.90;;;;;;5040169;28;20173;-79
2024/01/06 05:10:53;;;;;;;37.77;15.73;;;7.70;99.90;;;;;;5040824;28;20170;-80
2024/01/06 05:13:19;;;;;;;36.45;13.25;;;7.80;99.90;;;;;;5040459;28;20162;-79
2024/01/06 05:15:44;;;;;;;37.93;15.30;;;7.80;99.90;;;;;;5022463;28;20197;-81
2024/01/06 05:18:10;;;;;;;38.33;14.10;;;7.70;99.90;;;;;;5037629;28;20177;-80
2024/01/06 05:20:36;;;;;;;41.00;16.43;;;7.70;99.90;;;;;;5037282;28;20252;-81
2024/01/06 05:23:01;;;;;;;45.40;14.90;;;7.80;99.90;;;;;;5037312;28;20177;-81
2024/01/06 05:25:27;;;;;;;39.27;14.70;;;7.80;99.90;;;;;;5037237;28;20242;-80
2024/01/06 05:27:52;;;;;;;35.00;11.87;;;7.70;99.90;;;;;;5036885;28;20588;-79
2024/01/06 05:30:18;;;;;;;32.63;11.50;;;7.50;99.90;;;;;;5037283;28;20194;-79
2024/01/06 05:32:44;;;;;;;35.53;10.67;;;7.20;99.90;;;;;;5036618;28;20162;-79
2024/01/06 05:35:09;;;;;;;33.97;9.93;;;7.00;99.90;;;;;;5036573;28;20173;-80
2024/01/06 05:37:35;;;;;;;32.23;10.27;;;6.80;99.90;;;;;;5036418;28;20238;-79
2024/01/06 05:40:01;;;;;;;33.17;10.23;;;6.70;99.90;;;;;;5036254;28;20162;-80
2024/01/06 05:42:27;;;;;;;31.05;10.00;;;6.70;99.90;;;;;;5018716;28;20192;-79
2024/01/06 05:44:54;;;;;;;28.87;7.60;;;6.60;99.90;;;;;;5036711;28;20718;-79
2024/01/06 05:47:20;;;;;;;34.15;9.00;;;6.50;99.90;;;;;;5036251;28;20551;-79
2024/01/06 05:49:45;;;;;;;34.73;10.70;;;6.50;99.90;;;;;;5036554;28;20166;-80
2024/01/06 05:52:11;;;;;;;37.07;9.57;;;6.40;99.90;;;;;;5036375;28;20184;-80
2024/01/06 05:54:41;;;;;;;30.43;8.83;;;6.40;99.90;;;;;;5036324;28;20165;-79
2024/01/06 05:57:06;;;;;;;31.65;8.80;;;6.40;99.90;;;;;;5018461;28;20324;-80
2024/01/06 05:59:35;;;;;;;32.03;9.23;;;6.30;99.90;;;;;;5036331;28;20576;-80
2024/01/06 06:02:01;;;;;;;31.77;7.68;;;6.40;99.90;;;;;;5036640;28;20170;-80
2024/01/06 06:04:27;;;;;;;31.75;9.55;;;6.30;99.90;;;;;;5035688;28;20193;-81
2024/01/06 06:06:53;;;;;;;29.87;7.80;;;6.30;99.90;;;;;;5036341;28;20177;-80
2024/01/06 06:09:20;;;;;;;29.80;8.10;;;6.30;99.90;;;;;;5036228;28;20154;-79
2024/01/06 06:11:46;;;;;;;29.23;6.45;;;6.30;99.90;;;;;;5036286;28;20558;-80
2024/01/06 06:14:12;;;;;;;27.77;6.73;;;6.20;99.90;;;;;;5037462;28;20169;-80
2024/01/06 06:16:38;;;;;;;27.33;5.55;;;6.20;99.90;;;;;;5036795;28;20186;-79
2024/01/06 06:19:04;;;;;;;27.50;5.70;;;6.10;99.90;;;;;;5036796;28;20696;-79
2024/01/06 06:21:29;;;;;;;30.60;5.97;;;6.00;99.90;;;;;;5037406;28;20245;-80
2024/01/06 06:23:55;;;;;;;26.87;6.07;;;6.00;99.90;;;;;;5037361;28;20202;-80
2024/01/06 06:26:21;;;;;;;28.10;7.23;;;6.00;99.90;;;;;;5036304;28;20190;-80
2024/01/06 06:28:46;;;;;;;25.93;6.17;;;6.00;99.90;;;;;;5035615;28;20162;-80
2024/01/06 06:31:12;;;;;;;25.77;5.70;;;6.10;99.90;;;;;;5036130;28;20643;-80
2024/01/06 06:33:39;;;;;;;29.97;6.43;;;6.20;99.90;;;;;;5036539;28;20169;-80
2024/01/06 06:36:05;;;;;;;27.65;7.10;;;6.20;99.90;;;;;;5036391;28;20185;-80
2024/01/06 06:38:30;;;;;;;28.80;7.47;;;6.20;99.90;;;;;;5036748;28;20598;-80
2024/01/06 06:40:56;;;;;;;30.67;7.73;;;6.20;99.90;;;;;;5018591;28;20200;-80
2024/01/06 06:43:22;;;;;;;25.80;7.73;;;6.20;99.90;;;;;;5036150;28;20196;-80
2024/01/06 06:45:47;;;;;;;27.37;6.50;;;6.20;99.90;;;;;;5036484;28;20190;-80
2024/01/06 06:48:13;;;;;;;28.77;8.07;;;6.20;99.90;;;;;;5036226;28;20170;-80
2024/01/06 06:50:40;;;;;;;32.60;7.70;;;6.20;99.90;;;;;;5035786;28;20220;-80
2024/01/06 06:53:06;;;;;;;28.50;7.60;;;6.20;99.90;;;;;;5036041;28;20638;-80
2024/01/06 06:55:32;;;;;;;27.17;7.30;;;6.30;99.90;;;;;;5035729;28;20162;-80
2024/01/06 06:57:57;;;;;;;30.60;7.63;;;6.30;99.90;;;;;;5035637;28;20154;-80
2024/01/06 07:00:23;;;;;;;29.70;8.20;;;6.30;99.90;;;;;;5035740;28;20166;-81
2024/01/06 07:02:50;;;;;;;27.23;7.20;;;6.20;99.90;;;;;;5035512;28;20416;-80
2024/01/06 07:05:15;;;;;;;31.50;8.70;;;6.30;99.90;;;;;;5017646;28;20209;-80
2024/01/06 07:07:44;;;;;;;33.03;8.37;;;6.30;99.90;;;;;;5035544;28;20479;-81
2024/01/06 07:10:10;;;;;;;28.13;7.63;;;6.30;99.90;;;;;;5035345;28;20396;-80
2024/01/06 07:12:35;;;;;;;29.50;8.20;;;6.30;99.90;;;;;;5035344;28;20208;-81
2024/01/06 07:15:01;;;;;;;29.50;8.87;;;6.30;99.90;;;;;;5035565;28;20166;-81
2024/01/06 07:17:30;;;;;;;28.53;8.50;;;6.40;99.90;;;;;;5035592;28;20185;-79
2024/01/06 07:19:55;;;;;;;30.52;8.35;;;6.40;99.90;;;;;;5035368;28;20196;-81
2024/01/06 07:22:21;;;;;;;27.30;7.33;;;6.30;99.90;;;;;;5035616;28;20170;-81
2024/01/06 07:24:47;;;;;;;27.40;7.77;;;6.30;99.90;;;;;;5035564;28;20189;-80
2024/01/06 07:27:12;;;;;;;29.20;7.40;;;6.20;99.90;;;;;;5035396;28;20174;-81
2024/01/06 07:29:38;;;;;;;30.20;8.00;;;6.20;99.90;;;;;;5035360;28;20170;-80
2024/01/06 07:32:06;;;;;;;34.00;9.57;;;6.30;99.90;;;;;;5017187;28;20170;-80
2024/01/06 07:34:32;;;;;;;30.65;8.10;;;6.30;99.90;;;;;;5035122;28;20909;-81
2024/01/06 07:36:58;;;;;;;30.90;7.95;;;6.40;99.90;;;;;;5035367;28;20190;-80
2024/01/06 07:39:26;;;;;;;30.90;8.50;;;6.40;99.90;;;;;;5035003;28;20253;-81
2024/01/06 07:41:52;;;;;;;30.45;7.53;;;6.30;99.90;;;;;;5034543;28;20411;-81
2024/01/06 07:44:24;;;;;;;30.83;8.07;;;6.20;99.90;;;;;;5017094;28;20662;-81
2024/01/06 07:46:52;;;;;;;31.00;8.85;;;6.20;99.90;;;;;;5034494;28;20181;-81
2024/01/06 07:49:18;;;;;;;27.98;8.32;;;6.20;99.90;;;;;;5017492;28;20235;-82
2024/01/06 07:51:44;;;;;;;32.77;9.20;;;6.20;99.90;;;;;;5034926;28;20158;-81
2024/01/06 07:54:11;;;;;;;36.40;8.27;;;6.10;99.90;;;;;;5034928;28;20956;-81
2024/01/06 07:56:37;;;;;;;29.42;7.70;;;6.20;99.90;;;;;;5035019;28;20189;-81
2024/01/06 07:59:04;;;;;;;30.30;8.20;;;6.20;99.90;;;;;;5034646;28;20177;-82
2024/01/06 08:01:30;;;;;;;27.85;7.88;;;6.30;99.90;;;;;;5034792;28;20169;-81
2024/01/06 08:03:55;;;;;;;30.50;9.05;;;6.30;99.90;;;;;;5034497;28;20185;-82
2024/01/06 08:06:21;;;;;;;27.90;7.47;;;6.20;99.90;;;;;;5035018;28;20264;-82
2024/01/06 08:08:47;;;;;;;28.67;7.60;;;6.30;99.90;;;;;;5016934;28;20213;-81
2024/01/06 08:11:12;;;;;;;34.30;8.70;;;6.30;99.90;;;;;;5034690;28;20404;-81
2024/01/06 08:13:38;;;;;;;29.20;8.43;;;6.30;99.90;;;;;;5016884;28;20173;-82
2024/01/06 08:16:05;;;;;;;34.17;8.47;;;6.40;99.90;;;;;;5034603;28;20682;-82
2024/01/06 08:18:31;;;;;;;31.48;8.95;;;6.30;99.90;;;;;;5016539;28;20169;-81
2024/01/06 08:20:56;;;;;;;30.43;9.10;;;6.40;99.90;;;;;;5034469;28;20228;-81
2024/01/06 08:23:22;;;;;;;31.37;8.53;;;6.40;99.90;;;;;;5034680;28;20536;-81
2024/01/06 08:25:48;;;;;;;31.20;9.37;;;6.40;99.90;;;;;;5035346;28;20376;-81
2024/01/06 08:28:18;;;;;;;31.02;9.35;;;6.30;99.90;;;;;;5034431;28;20175;-81
2024/01/06 08:30:44;;;;;;;29.75;9.35;;;6.20;99.90;;;;;;5034638;28;20662;-81
2024/01/06 08:33:10;;;;;;;32.25;9.48;;;6.20;99.90;;;;;;5016671;28;20170;-81
2024/01/06 08:35:40;;;;;;;29.73;9.10;;;6.30;99.90;;;;;;5035229;28;20249;-80
2024/01/06 08:38:07;;;;;;;29.25;8.70;;;6.30;99.90;;;;;;5034492;28;20418;-81
2024/01/06 08:40:33;;;;;;;27.95;7.43;;;6.40;99.90;;;;;;5034596;28;20161;-81
2024/01/06 08:42:58;;;;;;;31.20;9.82;;;6.30;99.90;;;;;;5034374;28;20162;-80
2024/01/06 08:45:24;;;;;;;32.57;8.83;;;6.30;99.90;;;;;;5016414;28;20681;-81
2024/01/06 08:47:50;;;;;;;28.93;7.40;;;6.30;99.90;;;;;;5034528;28;20236;-82
2024/01/06 08:50:15;;;;;;;29.40;9.70;;;6.40;99.90;;;;;;5034551;28;20178;-81
2024/01/06 08:52:41;;;;;;;28.03;8.40;;;6.30;99.90;;;;;;5035268;28;20167;-82
2024/01/06 08:55:07;;;;;;;28.93;9.47;;;6.40;99.90;;;;;;5020145;28;20227;-81
2024/01/06 08:57:33;;;;;;;29.98;8.52;;;6.40;99.90;;;;;;5037844;28;20197;-82
2024/01/06 08:59:58;;;;;;;32.33;8.60;;;6.40;99.90;;;;;;5037991;28;20582;-81
2024/01/06 09:02:24;;;;;;;31.33;8.97;;;6.40;99.90;;;;;;5038506;28;20207;-80
2024/01/06 09:04:50;;;;;;;28.60;8.87;;;6.40;99.90;;;;;;5037755;28;20708;-80
2024/01/06 09:07:17;;;;;;;28.60;7.87;;;6.40;99.90;;;;;;5037898;28;20243;-80
2024/01/06 09:09:43;;;;;;;33.40;10.50;;;6.40;99.90;;;;;;5038152;28;20516;-81
2024/01/06 09:12:09;;;;;;;26.35;7.80;;;6.50;99.90;;;;;;5020104;28;20631;-81
2024/01/06 09:14:34;;;;;;;29.40;9.83;;;6.50;99.90;;;;;;5037854;28;20170;-80
2024/01/06 09:17:00;;;;;;;30.33;8.97;;;6.50;99.90;;;;;;5037871;28;20293;-80
2024/01/06 09:19:28;;;;;;;34.27;10.60;;;6.50;99.90;;;;;;5019735;28;20216;-81
2024/01/06 09:21:54;;;;;;;33.30;10.07;;;6.50;99.90;;;;;;5020138;28;20166;-81
2024/01/06 09:24:20;;;;;;;33.65;9.90;;;6.50;99.90;;;;;;5037760;28;20221;-81
2024/01/06 09:26:46;;;;;;;30.55;10.50;;;6.50;99.90;;;;;;5037434;28;20193;-82
2024/01/06 09:29:12;;;;;;;30.67;10.07;;;6.40;99.90;;;;;;5019850;28;20170;-81
2024/01/06 09:31:38;;;;;;;31.77;10.63;;;6.50;99.90;;;;;;5019683;28;20257;-82
2024/01/06 09:34:04;;;;;;;31.05;11.20;;;6.50;99.90;;;;;;5019947;28;20265;-81
2024/01/06 09:36:31;;;;;;;36.87;9.83;;;6.50;99.90;;;;;;5037909;28;20618;-81
2024/01/06 09:38:56;;;;;;;35.50;10.23;;;6.60;99.90;;;;;;5037155;28;20166;-81
2024/01/06 09:41:24;;;;;;;35.00;11.00;;;6.60;99.90;;;;;;5037386;28;20588;-82
2024/01/06 09:43:50;;;;;;;32.95;9.68;;;6.60;99.90;;;;;;5037352;28;20186;-81
2024/01/06 09:46:27;;;;;;;31.10;9.33;;;6.50;99.90;;;;;;5037567;28;20236;-81
2024/01/06 09:48:54;;;;;;;30.05;9.43;;;6.30;99.90;;;;;;5037498;28;20420;-81
2024/01/06 09:51:20;;;;;;;30.08;9.50;;;6.20;99.90;;;;;;5037195;28;20166;-80
2024/01/06 09:53:59;;;;;;;31.13;9.02;;;6.20;99.90;;;;;;5037675;28;20162;-82
2024/01/06 09:56:26;;;;;;;29.77;7.35;;;6.20;99.90;;;;;;5037514;28;20177;-82
2024/01/06 09:58:52;;;;;;;30.48;8.30;;;6.30;99.90;;;;;;5037293;28;20173;-81
2024/01/06 10:01:18;;;;;;;31.80;9.50;;;6.20;99.90;;;;;;5019186;28;20542;-81
2024/01/06 10:03:47;;;;;;;27.63;7.72;;;6.20;99.90;;;;;;5019220;28;20197;-82
2024/01/06 10:06:16;;;;;;;28.73;8.00;;;6.20;99.90;;;;;;5036868;28;20217;-81
2024/01/06 10:08:43;;;;;;;31.02;7.57;;;6.20;99.90;;;;;;5036953;28;20154;-81
2024/01/06 10:11:11;;;;;;;27.35;6.95;;;6.20;99.90;;;;;;5037280;28;20704;-82
2024/01/06 10:13:38;;;;;;;32.15;7.63;;;6.10;99.90;;;;;;5036934;28;20172;-82
2024/01/06 10:16:08;;;;;;;34.15;8.20;;;6.10;99.90;;;;;;5036739;28;20216;-80
2024/01/06 10:18:35;;;;;;;29.95;7.50;;;6.10;99.90;;;;;;5019237;28;20173;-80
2024/01/06 10:21:08;;;;;;;25.58;7.10;;;6.10;99.90;;;;;;5037008;28;20161;-82
2024/01/06 10:23:34;;;;;;;34.05;7.70;;;6.10;99.90;;;;;;5036901;28;20182;-82
2024/01/06 10:25:59;;;;;;;31.63;8.10;;;6.10;99.90;;;;;;5037012;28;20538;-80
2024/01/06 10:28:25;;;;;;;25.63;6.40;;;6.20;99.90;;;;;;5037203;28;20400;-81
2024/01/06 10:30:55;;;;;;;30.87;8.07;;;6.10;99.90;;;;;;5036935;28;20162;-80
2024/01/06 10:33:22;;;;;;;26.05;7.07;;;6.10;99.90;;;;;;5036590;28;20651;-82
2024/01/06 10:35:52;;;;;;;26.52;7.55;;;6.20;99.90;;;;;;5036161;28;20654;-81
2024/01/06 10:38:18;;;;;;;28.23;7.30;;;6.20;99.90;;;;;;5036087;28;20181;-82
2024/01/06 10:41:19;;;;;;;26.13;6.80;;;6.30;99.90;;;;;;5036859;28;20158;-82
2024/01/06 10:43:46;;;;;;;30.25;8.07;;;6.20;99.90;;;;;;4984606;28;20201;-82
2024/01/06 10:46:14;;;;;;;30.98;8.18;;;6.20;99.90;;;;;;5018613;28;20272;-81
2024/01/06 10:48:44;;;;;;;28.13;7.93;;;6.20;99.90;;;;;;5036651;28;20213;-82
2024/01/06 10:51:10;;;;;;;30.35;8.20;;;6.10;99.90;;;;;;5019123;28;20558;-81
2024/01/06 10:53:38;;;;;;;27.08;7.57;;;6.10;99.90;;;;;;5035970;28;20200;-81
2024/01/06 10:56:06;;;;;;;30.13;7.40;;;6.10;99.90;;;;;;5018432;28;20243;-81
2024/01/06 10:58:33;;;;;;;27.10;7.30;;;6.20;99.90;;;;;;5036652;28;20165;-82
2024/01/06 11:01:00;;;;;;;28.13;7.70;;;6.20;99.90;;;;;;5036402;28;20157;-81
2024/01/06 11:03:28;;;;;;;29.77;7.82;;;6.20;99.90;;;;;;5035835;28;20223;-82
2024/01/06 11:05:54;;;;;;;28.08;7.65;;;6.30;99.90;;;;;;5018135;28;20213;-81
2024/01/06 11:08:22;;;;;;;26.47;6.23;;;6.30;99.90;;;;;;5036147;28;20166;-80
2024/01/06 11:10:48;;;;;;;34.28;7.68;;;6.30;99.90;;;;;;5036005;28;20201;-82
2024/01/06 11:13:20;;;;;;;27.95;6.75;;;6.20;99.90;;;;;;5035963;28;20173;-80
2024/01/06 11:15:54;;;;;;;30.98;7.40;;;6.20;99.90;;;;;;5035734;28;20647;-82
2024/01/06 11:18:37;;;;;;;29.13;6.90;;;6.20;99.90;;;;;;5018062;28;20686;-82
2024/01/06 11:21:24;;;;;;;27.55;7.40;;;6.10;99.90;;;;;;5035827;28;20526;-82
2024/01/06 11:24:20;;;;;;;28.80;7.97;;;6.20;99.90;;;;;;5035867;28;20211;-81
2024/01/06 11:26:49;;;;;;;28.63;6.45;;;6.30;99.90;;;;;;5035674;28;20181;-81
2024/01/06 11:29:14;;;;;;;26.70;7.65;;;6.40;99.90;;;;;;5036261;28;20257;-82
2024/01/06 11:31:40;;;;;;;24.33;6.87;;;6.40;99.90;;;;;;5035717;28;20193;-81
2024/01/06 11:34:17;;;;;;;28.60;8.10;;;6.40;99.90;;;;;;5034938;28;20166;-81
2024/01/06 11:36:48;;;;;;;27.20;8.55;;;6.40;99.90;;;;;;5035491;28;20715;-82
2024/01/06 11:39:50;;;;;;;29.85;7.35;;;6.40;99.90;;;;;;5017821;28;20173;-82
2024/01/06 11:42:15;;;;;;;30.55;8.63;;;6.40;99.90;;;;;;4935997;29;20319;-81
2024/01/06 11:44:45;;;;;;;29.27;7.77;;;6.40;99.90;;;;;;5015352;28;20233;-82
2024/01/06 11:47:12;;;;;;;24.77;7.22;;;6.40;99.90;;;;;;5035537;28;20182;-82
2024/01/06 11:49:38;;;;;;;27.73;7.88;;;6.40;99.90;;;;;;5035133;28;20170;-81
2024/01/06 11:52:04;;;;;;;30.73;9.00;;;6.40;99.90;;;;;;5035989;28;20197;-82
2024/01/06 11:54:31;;;;;;;26.70;7.93;;;6.40;99.90;;;;;;5035381;28;20172;-82
2024/01/06 11:56:57;;;;;;;25.33;6.70;;;6.40;99.90;;;;;;5017372;28;20190;-82
2024/01/06 11:59:23;;;;;;;26.95;8.20;;;6.30;99.90;;;;;;5035263;28;20193;-82
2024/01/06 12:01:49;;;;;;;30.60;8.70;;;6.20;99.90;;;;;;5035704;28;20578;-82
2024/01/06 12:04:15;;;;;;;26.57;7.50;;;6.20;99.90;;;;;;5035230;28;20973;-81
2024/01/06 12:06:41;;;;;;;29.70;7.70;;;6.10;99.90;;;;;;5035015;28;20690;-81
2024/01/06 12:09:10;;;;;;;25.90;6.18;;;6.00;99.90;;;;;;5035003;28;20253;-82
2024/01/06 12:11:37;;;;;;;26.90;6.70;;;6.00;99.90;;;;;;5035789;28;20216;-82
2024/01/06 12:14:03;;;;;;;23.52;5.78;;;6.00;99.90;;;;;;5017420;28;20174;-82
2024/01/06 12:16:28;;;;;;;29.33;7.20;;;6.00;99.90;;;;;;5034971;28;20185;-82
2024/01/06 12:18:55;;;;;;;28.60;7.73;;;5.90;99.90;;;;;;5017261;28;20197;-82
2024/01/06 12:21:24;;;;;;;26.67;7.40;;;5.90;99.90;;;;;;5017247;28;20656;-81
2024/01/06 12:23:49;;;;;;;29.15;8.23;;;5.90;99.90;;;;;;5035690;28;20197;-80
2024/01/06 12:26:17;;;;;;;26.70;6.93;;;5.80;99.90;;;;;;5035056;28;20182;-81
2024/01/06 12:28:48;;;;;;;26.92;7.35;;;5.80;99.90;;;;;;5039511;28;20631;-82
2024/01/06 12:31:14;;;;;;;26.80;6.70;;;5.80;99.90;;;;;;5039133;28;20162;-80
2024/01/06 12:33:40;;;;;;;25.65;6.82;;;5.80;99.90;;;;;;5021072;28;20654;-82
2024/01/06 12:36:11;;;;;;;28.92;8.52;;;5.80;99.90;;;;;;5039019;28;20190;-81
2024/01/06 12:38:37;;;;;;;32.45;8.75;;;5.80;99.90;;;;;;5021009;28;20181;-82
2024/01/06 12:41:05;;;;;;;37.72;8.70;;;5.60;99.90;;;;;;5038891;28;20170;-80
2024/01/06 12:43:30;;;;;;;30.23;8.90;;;5.60;99.90;;;;;;5021037;28;20177;-82